logo
App data

Patrician III

Patrician III - sequel to the award winning game Patrician II - features advanced in-game AI, which adjusts its difficulty based on experience and ability. In this economic sandbox game you can gain wealth and power in multiple ways - what you will do with it is up to you.
Store | Hub | SteamDB
Developer: Ascaron Entertainment ltd. Publisher: Kalypso Media Digital
Genre: RPG, Simulation, Strategy
Languages: English
Tags: Strategy (62), Simulation (57), Trading (46), Management (39), Economy (37), RPG (34), Historical (34)
Category: Single-player
Release date: Nov 18, 2010
Price: $4.99
Old userscore: 80% Metascore: 75%
Owners: 100,000 .. 200,000
Followers: 1,770
Peak concurrent players yesterday: 32
YouTube stats: 84 views and 4 comments for top 50 videos uploaded last week, 1 new videos uploaded yesterday.
Playtime total: 00:03 (average) 00:03 (median)

Steam Spy is still in beta, so expect major bugs.

Owners data:

Access restricted.

This feature is only available to users with special access rights. Sorry.

If you want to proceed, you need to register or log in first and then back Steam Spy on Patreon. Look for Indie or Pro pledge.

Don't forget to use the same email as on Steam Spy!

If you've recently backed Steam Spy on Patreon, please note, that it might take around 15 minutes for your access rights to sync. In most cases you'll need to re-login on Steam Spy too.

Audience in 2 weeks:

Access restricted.

This feature is only available to users with special access rights. Sorry.

If you want to proceed, you need to register or log in first and then back Steam Spy on Patreon. Look for Indie or Pro pledge.

Don't forget to use the same email as on Steam Spy!

If you've recently backed Steam Spy on Patreon, please note, that it might take around 15 minutes for your access rights to sync. In most cases you'll need to re-login on Steam Spy too.

Peak daily concurrent players:

CCU data courtesy of SteamDB. Used with permission.

Hourly concurrent players:

Daily Twitch stats:

Hourly Twitch stats:

Followers over time

Access restricted.

This feature is only available to users with special access rights. Sorry.

If you want to proceed, you need to register or log in first and then back Steam Spy on Patreon. Look for Indie or Pro pledge.

Don't forget to use the same email as on Steam Spy!

If you've recently backed Steam Spy on Patreon, please note, that it might take around 15 minutes for your access rights to sync. In most cases you'll need to re-login on Steam Spy too.

Views for top 50 videos on YouTube for this game:

Games similar to this one:

# Game Release date
Price
Score rank
(Userscore / Metascore)
Owners
Players
Playtime (Median)
1 Perimeter: Emperor's Testament Aug 29, 2006 $3.99N/A (N/A/72%)20,000 .. 50,0000%00:00 (00:00)
2 Civil War II Sep 17, 2013 $39.99N/A (N/A)20,000 .. 50,0000%00:00 (00:00)
3 Perimeter May 21, 2004 $3.99N/A (N/A/77%)20,000 .. 50,0000%00:00 (00:00)
4 War in a Box: Paper Tanks Jul 4, 2014 $4.99N/A (N/A)50,000 .. 100,0000%00:00 (00:00)
5 UFO: Aftershock Apr 16, 2014 $3.99N/A (N/A)50,000 .. 100,0000%00:00 (00:00)
6 The Nightmare Cooperative Jul 16, 2014 $4.99N/A (N/A)20,000 .. 50,0000%00:00 (00:00)
7 Aggression: Europe Under Fire May 10, 2007 $9.99N/A (N/A)50,000 .. 100,0000%00:00 (00:00)
8 Legions of Ashworld Jul 4, 2014 $4.99N/A (N/A)20,000 .. 50,0000%00:00 (00:00)
9 Evolution RTS Apr 4, 2014 N/AN/A (N/A)100,000 .. 200,0000%00:00 (00:00)
10 Hell Nov 13, 2014 $29.99N/A (N/A)0 .. 20,0000%00:00 (00:00)
11 Haegemonia: The Solon Heritage May 1, 2014 $0.49N/A (N/A)50,000 .. 100,0000%00:00 (00:00)
12 Legions of Steel Jul 16, 2015 $19.99N/A (N/A/64%)0 .. 20,0000%00:00 (00:00)
13 Brigade E5: New Jagged Union Oct 17, 2006 $3.99N/A (N/A/41%)0 .. 20,0000%00:00 (00:00)
14 Alea Jacta Est Sep 27, 2012 $24.99N/A (N/A)50,000 .. 100,0000%00:00 (00:00)
15 Rooks Keep Dec 5, 2014 $7.99N/A (N/A)0 .. 20,0000%00:00 (00:00)
16 Hunters Of The Dead Sep 4, 2014 $4.99N/A (N/A)0 .. 20,0000%00:00 (00:00)
17 Rush for Glory Jun 16, 2014 $14.99N/A (N/A)20,000 .. 50,0000%00:00 (00:00)
18 Darwinia Jul 14, 2005 $9.99N/A (N/A/84%)200,000 .. 500,0000%00:00 (00:00)
19 X-COM: Apocalypse Jul 15, 1997 $4.99N/A (N/A)500,000 .. 1,000,0000%00:00 (00:00)
20 Space Empires IV Deluxe Feb 7, 2006 $9.99N/A (N/A/79%)50,000 .. 100,0000%00:00 (00:00)
21 X-COM: Interceptor Jun 15, 1998 $4.99N/A (N/A)100,000 .. 200,0000%00:00 (00:00)
22 Men of War: Red Tide Nov 1, 2009 $4.99N/A (N/A/77%)200,000 .. 500,0000%00:00 (00:00)
23 X-COM: Enforcer Apr 19, 2001 $4.99N/A (N/A/65%)100,000 .. 200,0000%00:00 (00:00)
24 Civilization IV: Warlords Apr 6, 2007 $4.99N/A (N/A/84%)1,000,000 .. 2,000,0000%00:00 (00:00)
25 Warhammer 40,000: Dawn of War – Winter Assault Aug 7, 2007 $12.99N/A (N/A)500,000 .. 1,000,0000%00:00 (00:00)
26 Rome: Total War - Alexander Jun 26, 2006 $12.99N/A (N/A/79%)500,000 .. 1,000,0000%00:00 (00:00)
27 Company of Heroes: Opposing Fronts Sep 27, 2007 $19.99N/A (N/A/87%)1,000,000 .. 2,000,0000%00:00 (00:00)
28 Joint Task Force Sep 12, 2006 $7.99N/A (N/A/68%)20,000 .. 50,0000%00:00 (00:00)
29 Supreme Commander Feb 20, 2007 $12.99N/A (N/A/86%)200,000 .. 500,0000%00:00 (00:00)
30 Commandos: Beyond the Call of Duty Apr 7, 1999 $4.99N/A (N/A)500,000 .. 1,000,0000%00:00 (00:00)
31 Codename: Panzers - Cold War Mar 10, 2009 $14.99N/A (N/A)20,000 .. 50,0000%00:00 (00:00)
32 Battlestations: Midway Jan 30, 2007 $6.99N/A (N/A/76%)500,000 .. 1,000,0000%00:00 (00:00)
33 Space Trader: Merchant Marine Oct 23, 2008 $4.99N/A (N/A)100,000 .. 200,0000%00:00 (00:00)
34 Two Worlds II Castle Defense Jun 14, 2011 $9.99N/A (N/A)100,000 .. 200,0000%00:00 (00:00)
35 Magnifico Dec 2, 2014 $4.99N/A (N/A)0 .. 20,0000%00:00 (00:00)
36 Rise: Battle Lines Nov 17, 2015 N/AN/A (N/A)0 .. 20,0000%00:00 (00:00)
37 Gods vs Humans Sep 5, 2013 $0.49N/A (N/A)20,000 .. 50,0000%00:00 (00:00)
38 WARSHIFT Oct 12, 2016 $4.99N/A (N/A)20,000 .. 50,0000%00:00 (00:00)
39 Survivor Squad: Gauntlets Nov 16, 2015 $4.99N/A (N/A)20,000 .. 50,0000%00:00 (00:00)
40 The Seven Years War (1756-1763) Oct 30, 2015 $19.99N/A (N/A)20,000 .. 50,0000%00:00 (00:00)
41 Neocolonialism Nov 25, 2014 $2.99N/A (N/A)0 .. 20,0000%00:00 (00:00)
42 Master of Orion 3 Feb 25, 2003 $9.99N/A (N/A/64%)200,000 .. 500,0000%00:00 (00:00)
43 SHOGUN: Total War - Collection Jun 13, 2000 $9.99N/A (N/A)100,000 .. 200,0000%00:00 (00:00)
44 Codename: Panzers, Phase Two Feb 18, 2016 $14.99N/A (N/A/80%)20,000 .. 50,0000%00:00 (00:00)
45 BattleLore: Command Mar 31, 2015 $6.99N/A (N/A)0 .. 20,0000%00:00 (00:00)
46 Pang Adventures Apr 18, 2016 $9.99N/A (N/A)20,000 .. 50,0000%00:00 (00:00)
47 Locoland Nov 22, 2003 $4.99N/A (N/A)0 .. 20,00050%03:04 (01:32)
48 Cluck Yegger in Escape From The Planet of The Poultroid Nov 9, 2015 $2.99N/A (N/A)0 .. 20,0000%00:00 (00:00)
49 World War I Jun 17, 2005 $4.99N/A (N/A)20,000 .. 50,0000%00:00 (00:00)
50 Cosmic Trip May 24, 2017 $19.99N/A (N/A)20,000 .. 50,0000%00:00 (00:00)
51 Nomad Fleet Jul 14, 2015 $4.99N/A (N/A)50,000 .. 100,0000%00:00 (00:00)
52 Legends of Callasia Jun 10, 2016 $14.99N/A (N/A)20,000 .. 50,0000%00:00 (00:00)
53 Steam 360 Video Player May 10, 2017 FreeN/A (N/A)100,000 .. 200,0000%00:00 (00:00)
54 Crown and Council Jan 27, 2017 FreeN/A (N/A)100,000 .. 200,0000%00:00 (00:00)
55 Out of Ammo Sep 14, 2016 $9.99N/A (N/A)50,000 .. 100,0000%00:00 (00:00)
56 A Healer Only Lives Twice Jun 2, 2016 $4.99N/A (N/A)0 .. 20,0000%00:00 (00:00)
57 Cthulhu Realms Jul 1, 2016 N/AN/A (N/A)50,000 .. 100,0000%00:00 (00:00)
58 Quarantine Feb 9, 2017 $9.99N/A (N/A)20,000 .. 50,0000%00:00 (00:00)
59 ROD: Revolt Of Defense Aug 12, 2016 $0.99N/A (N/A)20,000 .. 50,0000%00:00 (00:00)
60 Microgons Mar 27, 2017 FreeN/A (N/A)20,000 .. 50,0000%00:00 (00:00)
61 Gunman Taco Truck Jan 28, 2017 $2.99N/A (N/A)0 .. 20,0000%00:00 (00:00)
62 The Guild Gold Edition Nov 18, 2002 $9.99N/A (N/A/82%)100,000 .. 200,0007.69%00:03 (00:01)
63 Red Faction II Apr 9, 2003 $9.99N/A (N/A/64%)200,000 .. 500,0000%00:00 (00:00)
64 Rush for Berlin Gold Oct 29, 2009 $4.99N/A (N/A/76%)20,000 .. 50,0000%00:00 (00:00)
65 Imperium Romanum Gold Edition Oct 30, 2008 $9.99N/A (N/A/63%)100,000 .. 200,0000%00:00 (00:00)
66 Robin Hood: The Legend of Sherwood Nov 1, 2002 $0.79N/A (N/A/80%)100,000 .. 200,0000%00:00 (00:00)
67 Europa Universalis: Rome - Gold Edition Nov 19, 2008 $9.99N/A (N/A/79%)50,000 .. 100,0000%00:00 (00:00)
68 Dungeons Feb 10, 2011 $9.99N/A (N/A/65%)200,000 .. 500,0000%00:00 (00:00)
69 Grand Ages: Rome Mar 20, 2009 $4.99N/A (N/A/72%)200,000 .. 500,0000%00:00 (00:00)
70 Age of Wonders Oct 2010 $5.99N/A (N/A)100,000 .. 200,0000%00:00 (00:00)
71 Crusaders: Thy Kingdom Come Oct 8, 2009 $9.99N/A (N/A)20,000 .. 50,0000%00:00 (00:00)
72 Age of Wonders II: The Wizard's Throne Oct 2010 $9.99N/A (N/A/86%)50,000 .. 100,0000%00:00 (00:00)
73 Supreme Ruler 2020 Gold Jun 17, 2008 $9.99N/A (N/A/65%)50,000 .. 100,0000%00:00 (00:00)
74 Swords and Soldiers HD Dec 2, 2010 $9.99N/A (N/A)200,000 .. 500,0000%00:00 (00:00)
75 East India Company Jul 31, 2009 $9.99N/A (N/A/67%)50,000 .. 100,0000%00:00 (00:00)
76 Fantasy Wars Aug 6, 2010 $4.99N/A (N/A/67%)100,000 .. 200,0000%00:00 (00:00)
77 Dwarfs!? May 4, 2011 $9.99N/A (N/A)200,000 .. 500,0000%00:00 (00:00)
78 9th Company: Roots Of Terror Dec 3, 2009 $9.99N/A (N/A)20,000 .. 50,0000%00:00 (00:00)
79 Dungeons - The Dark Lord Sep 27, 2011 $19.99N/A (N/A/72%)20,000 .. 50,0000%00:00 (00:00)
80 APOX Jan 20, 2011 $14.99N/A (N/A/48%)20,000 .. 50,0000%00:00 (00:00)
81 Disciples III - Resurrection Oct 11, 2011 $14.99N/A (N/A/63%)100,000 .. 200,0000%00:00 (00:00)
82 Fate of the World Feb 28, 2011 $9.99N/A (N/A/70%)50,000 .. 100,0000%00:00 (00:00)
83 Men of War: Condemned Heroes Apr 12, 2012 $7.99N/A (N/A/57%)100,000 .. 200,0000%00:00 (00:00)
84 Guardians of Graxia Nov 1, 2010 N/AN/A (N/A)50,000 .. 100,0000%00:00 (00:00)
85 Crusader Kings Complete Feb 14, 2012 $9.99N/A (N/A/73%)100,000 .. 200,0000%00:00 (00:00)
86 Hydrophobia: Prophecy May 9, 2011 $4.99N/A (N/A/64%)200,000 .. 500,0000%00:00 (00:00)
87 Gratuitous Tank Battles May 17, 2012 $9.99N/A (N/A/69%)50,000 .. 100,0000%00:00 (00:00)
88 Demolition Inc. Sep 19, 2011 $5.99N/A (N/A)50,000 .. 100,00033.33%00:27 (00:09)
89 Cubemen Mar 16, 2012 $3.99N/A (N/A/74%)100,000 .. 200,0000%00:00 (00:00)
90 Achron Aug 29, 2011 $19.99N/A (N/A/54%)20,000 .. 50,0000%00:00 (00:00)
91 Viking: Battle for Asgard Oct 17, 2012 $14.99N/A (N/A)1,000,000 .. 2,000,0000%00:00 (00:00)
92 American Conquest Feb 7, 2003 $4.99N/A (N/A/76%)20,000 .. 50,0000%00:00 (00:00)
93 Conflict Desert Storm May 28, 2012 $6.99N/A (N/A/56%)100,000 .. 200,0000%00:00 (00:00)
94 American Conquest: Fight Back Sep 30, 2003 $4.99N/A (N/A/66%)50,000 .. 100,0000%00:00 (00:00)
95 Theatre of War 3: Korea Mar 24, 2011 $6.99N/A (N/A/49%)20,000 .. 50,0000%00:00 (00:00)
96 Earth 2140 Nov 15, 2013 $4.99N/A (N/A)200,000 .. 500,0001.25%04:05 (01:21)
97 Galactic Civilizations I: Ultimate Edition Mar 23, 2003 $9.99N/A (N/A/83%)200,000 .. 500,0000%00:00 (00:00)
98 Silent Storm Gold Edition Sep 9, 2004 $9.99N/A (N/A/83%)200,000 .. 500,0000%00:00 (00:00)
99 Tiny Troopers Aug 24, 2012 $0.89N/A (N/A/57%)100,000 .. 200,0000%00:00 (00:00)
100 Void Destroyer Jan 20, 2015 $3.49N/A (N/A)50,000 .. 100,0000%00:00 (00:00)
101 Planets Under Attack Sep 27, 2012 $9.99N/A (N/A)200,000 .. 500,0000%00:00 (00:00)
102 Desperados: Wanted Dead or Alive Jul 23, 2001 $4.99N/A (N/A/78%)100,000 .. 200,0000%00:00 (00:00)
103 Sang-Froid - Tales of Werewolves Apr 5, 2013 FreeN/A (N/A/79%)200,000 .. 500,0000%00:00 (00:00)
104 Praetorians Mar 10, 2003 $4.99N/A (N/A/78%)100,000 .. 200,0000%00:00 (00:00)
105 UFO: Afterlight Feb 8, 2007 $6.99N/A (N/A/71%)200,000 .. 500,0000%00:00 (00:00)
106 US and THEM Mar 8, 2010 $2.99N/A (N/A)20,000 .. 50,0000%00:00 (00:00)
107 Citadels Jul 25, 2013 $14.99N/A (N/A/20%)50,000 .. 100,0000%00:00 (00:00)
108 Disciples Sacred Lands Gold Oct 4, 1999 $1.59N/A (N/A)50,000 .. 100,0000%00:00 (00:00)
109 Skyward Collapse May 23, 2013 $1.24N/A (N/A/64%)100,000 .. 200,0000%00:00 (00:00)
110 Battle Academy Aug 4, 2010 $14.99N/A (N/A)20,000 .. 50,0000%00:00 (00:00)
111 Dominions 3: The Awakening Sep 10, 2013 $19.99N/A (N/A/82%)20,000 .. 50,0000%00:00 (00:00)
112 Conquest of Elysium 3 Oct 24, 2012 $9.99N/A (N/A)50,000 .. 100,0000%00:00 (00:00)

Tags over time:

Access restricted.

This feature is only available to users with special access rights. Sorry.

If you want to proceed, you need to register or log in first and then back Steam Spy on Patreon. Look for Indie or Pro pledge.

Don't forget to use the same email as on Steam Spy!

If you've recently backed Steam Spy on Patreon, please note, that it might take around 15 minutes for your access rights to sync. In most cases you'll need to re-login on Steam Spy too.

Owners of this game also own:

Access restricted.

This feature is only available to users with special access rights. Sorry.

If you want to proceed, you need to register or log in first and then back Steam Spy on Patreon. Look for Indie or Pro pledge.

Don't forget to use the same email as on Steam Spy!

If you've recently backed Steam Spy on Patreon, please note, that it might take around 15 minutes for your access rights to sync. In most cases you'll need to re-login on Steam Spy too.

Playtime distribution:

Access restricted.

This feature is only available to users with special access rights. Sorry.

If you want to proceed, you need to register or log in first and then back Steam Spy on Patreon. Look for Indie or Pro pledge.

Don't forget to use the same email as on Steam Spy!

If you've recently backed Steam Spy on Patreon, please note, that it might take around 15 minutes for your access rights to sync. In most cases you'll need to re-login on Steam Spy too.

Playtime (2 weeks):

Access restricted.

This feature is only available to users with special access rights. Sorry.

If you want to proceed, you need to register or log in first and then back Steam Spy on Patreon. Look for Indie or Pro pledge.

Don't forget to use the same email as on Steam Spy!

If you've recently backed Steam Spy on Patreon, please note, that it might take around 15 minutes for your access rights to sync. In most cases you'll need to re-login on Steam Spy too.

User reviews:

Login required.

Please register or log in to see this information.